Pays
Station

 

Conditions  météo  pour  Pescara  -  Italie    Italie

  
20 °C
    
 
 

METAR pour Pescara :

LIBP 172350Z AUTO 24005KT 9999 NCD 20/19 Q1013

 

Voici le bulletin pour Pescara - Italie.
 
Le bulletin a été fait il y a 47 minutes, à 23:50 UTC .
Le vent soufflait à la vitesse de 2.6 mètres par seconde de Ouest/Sud-ouest (240°).
 
La température était de 20 °C, avec un point de rosée à 19 °C.
La pression atmosphérique était de 1013 hPa.
L'humidité relative était de 94.0%.
 
La visibilité globale était de supérieure à 10 kilomètres.
 

 
 
 

Pays :   A   B   C   D   E   F   G   H   I   J   K   L   M   N   O   P   Q   R   S   T   U   V   W   Y   Z

 

Partenaires :  Info Météo avec Met'info
Météo Marine avec MeteoMarine.net
Infos Site  |  Infos Légales  |  Crédits  |  Confidentialité
Contactez-nous  |  Ajouter aux favoris
© 2013-2018 METAR - Tous droits réservés